sensor_id;sensor_type;location;lat;lon;timestamp;P1;durP1;ratioP1;P2;durP2;ratioP2
73919;SDS011;62266;53.348;-1.496;2023-03-14T00:01:11;1.40;;;0.90;;
73919;SDS011;62266;53.348;-1.496;2023-03-14T00:03:40;1.00;;;0.70;;
73919;SDS011;62266;53.348;-1.496;2023-03-14T00:06:08;0.70;;;0.60;;
73919;SDS011;62266;53.348;-1.496;2023-03-14T00:08:35;1.05;;;0.60;;
73919;SDS011;62266;53.348;-1.496;2023-03-14T00:11:10;0.80;;;0.70;;
73919;SDS011;62266;53.348;-1.496;2023-03-14T00:13:38;0.90;;;0.60;;
73919;SDS011;62266;53.348;-1.496;2023-03-14T00:21:19;1.20;;;0.70;;
73919;SDS011;62266;53.348;-1.496;2023-03-14T00:23:45;1.50;;;0.70;;
73919;SDS011;62266;53.348;-1.496;2023-03-14T00:26:12;1.45;;;0.90;;
73919;SDS011;62266;53.348;-1.496;2023-03-14T00:28:39;1.25;;;0.90;;
73919;SDS011;62266;53.348;-1.496;2023-03-14T00:31:06;1.40;;;0.90;;
73919;SDS011;62266;53.348;-1.496;2023-03-14T00:33:33;0.98;;;0.77;;
73919;SDS011;62266;53.348;-1.496;2023-03-14T00:36:09;0.90;;;0.70;;
73919;SDS011;62266;53.348;-1.496;2023-03-14T00:38:36;1.55;;;0.70;;
73919;SDS011;62266;53.348;-1.496;2023-03-14T00:41:03;1.50;;;0.80;;
73919;SDS011;62266;53.348;-1.496;2023-03-14T00:43:32;1.53;;;0.90;;
73919;SDS011;62266;53.348;-1.496;2023-03-14T00:45:58;0.90;;;0.68;;
73919;SDS011;62266;53.348;-1.496;2023-03-14T00:48:24;1.50;;;0.90;;
73919;SDS011;62266;53.348;-1.496;2023-03-14T00:50:49;1.83;;;0.90;;
73919;SDS011;62266;53.348;-1.496;2023-03-14T00:53:15;1.30;;;0.80;;
73919;SDS011;62266;53.348;-1.496;2023-03-14T00:55:42;1.10;;;0.70;;
73919;SDS011;62266;53.348;-1.496;2023-03-14T00:58:08;2.47;;;0.80;;
73919;SDS011;62266;53.348;-1.496;2023-03-14T01:00:35;1.10;;;0.90;;
73919;SDS011;62266;53.348;-1.496;2023-03-14T01:03:01;4.25;;;1.17;;
73919;SDS011;62266;53.348;-1.496;2023-03-14T01:05:27;3.92;;;0.90;;
73919;SDS011;62266;53.348;-1.496;2023-03-14T01:07:53;1.40;;;0.73;;
73919;SDS011;62266;53.348;-1.496;2023-03-14T01:10:18;1.67;;;0.90;;
73919;SDS011;62266;53.348;-1.496;2023-03-14T01:12:44;1.20;;;0.90;;
73919;SDS011;62266;53.348;-1.496;2023-03-14T01:15:10;1.50;;;0.70;;
73919;SDS011;62266;53.348;-1.496;2023-03-14T01:17:36;1.13;;;0.80;;
73919;SDS011;62266;53.348;-1.496;2023-03-14T01:20:03;1.70;;;0.97;;
73919;SDS011;62266;53.348;-1.496;2023-03-14T01:22:31;3.88;;;0.90;;
73919;SDS011;62266;53.348;-1.496;2023-03-14T01:24:56;2.23;;;0.70;;
73919;SDS011;62266;53.348;-1.496;2023-03-14T01:27:22;2.63;;;0.98;;
73919;SDS011;62266;53.348;-1.496;2023-03-14T01:29:47;3.83;;;0.90;;
73919;SDS011;62266;53.348;-1.496;2023-03-14T01:32:13;1.35;;;0.98;;
73919;SDS011;62266;53.348;-1.496;2023-03-14T01:34:57;1.00;;;0.70;;
73919;SDS011;62266;53.348;-1.496;2023-03-14T01:37:42;3.25;;;0.90;;
73919;SDS011;62266;53.348;-1.496;2023-03-14T01:40:26;5.00;;;1.10;;
73919;SDS011;62266;53.348;-1.496;2023-03-14T01:43:14;1.42;;;0.77;;
73919;SDS011;62266;53.348;-1.496;2023-03-14T01:48:52;4.57;;;1.33;;
73919;SDS011;62266;53.348;-1.496;2023-03-14T01:51:42;3.33;;;0.90;;
73919;SDS011;62266;53.348;-1.496;2023-03-14T01:54:34;5.32;;;1.58;;
73919;SDS011;62266;53.348;-1.496;2023-03-14T01:57:36;2.97;;;0.93;;
73919;SDS011;62266;53.348;-1.496;2023-03-14T02:00:22;3.65;;;0.88;;
73919;SDS011;62266;53.348;-1.496;2023-03-14T02:03:11;1.73;;;1.00;;
73919;SDS011;62266;53.348;-1.496;2023-03-14T02:05:59;4.03;;;0.70;;
73919;SDS011;62266;53.348;-1.496;2023-03-14T02:08:45;4.93;;;1.23;;
73919;SDS011;62266;53.348;-1.496;2023-03-14T02:11:33;2.47;;;0.82;;
73919;SDS011;62266;53.348;-1.496;2023-03-14T02:14:38;1.95;;;1.52;;
73919;SDS011;62266;53.348;-1.496;2023-03-14T02:17:21;3.63;;;1.00;;
73919;SDS011;62266;53.348;-1.496;2023-03-14T02:20:12;2.05;;;1.02;;
73919;SDS011;62266;53.348;-1.496;2023-03-14T02:23:04;4.22;;;1.13;;
73919;SDS011;62266;53.348;-1.496;2023-03-14T02:26:09;6.07;;;1.20;;
73919;SDS011;62266;53.348;-1.496;2023-03-14T02:28:55;4.47;;;1.55;;
73919;SDS011;62266;53.348;-1.496;2023-03-14T02:31:39;2.83;;;1.00;;
73919;SDS011;62266;53.348;-1.496;2023-03-14T02:34:23;4.45;;;0.98;;
73919;SDS011;62266;53.348;-1.496;2023-03-14T02:37:08;3.40;;;1.10;;
73919;SDS011;62266;53.348;-1.496;2023-03-14T02:39:53;7.32;;;1.05;;
73919;SDS011;62266;53.348;-1.496;2023-03-14T02:42:38;2.90;;;1.02;;
73919;SDS011;62266;53.348;-1.496;2023-03-14T02:45:25;2.13;;;0.67;;
73919;SDS011;62266;53.348;-1.496;2023-03-14T02:48:18;2.83;;;1.00;;
73919;SDS011;62266;53.348;-1.496;2023-03-14T02:51:05;4.70;;;0.80;;
73919;SDS011;62266;53.348;-1.496;2023-03-14T02:53:50;5.07;;;1.00;;
73919;SDS011;62266;53.348;-1.496;2023-03-14T02:56:35;2.75;;;0.98;;
73919;SDS011;62266;53.348;-1.496;2023-03-14T02:59:21;3.67;;;0.90;;
73919;SDS011;62266;53.348;-1.496;2023-03-14T03:02:06;2.97;;;0.55;;
73919;SDS011;62266;53.348;-1.496;2023-03-14T03:04:50;2.10;;;0.77;;
73919;SDS011;62266;53.348;-1.496;2023-03-14T03:07:35;2.90;;;0.90;;
73919;SDS011;62266;53.348;-1.496;2023-03-14T03:10:20;2.15;;;0.60;;
73919;SDS011;62266;53.348;-1.496;2023-03-14T03:13:04;3.33;;;1.07;;
73919;SDS011;62266;53.348;-1.496;2023-03-14T03:15:49;1.52;;;0.80;;
73919;SDS011;62266;53.348;-1.496;2023-03-14T03:18:33;3.30;;;0.90;;
73919;SDS011;62266;53.348;-1.496;2023-03-14T03:21:17;3.33;;;0.73;;
73919;SDS011;62266;53.348;-1.496;2023-03-14T03:24:02;4.80;;;0.98;;
73919;SDS011;62266;53.348;-1.496;2023-03-14T03:26:47;2.43;;;0.70;;
73919;SDS011;62266;53.348;-1.496;2023-03-14T03:29:31;6.72;;;1.10;;
73919;SDS011;62266;53.348;-1.496;2023-03-14T03:32:15;5.50;;;1.25;;
73919;SDS011;62266;53.348;-1.496;2023-03-14T03:34:59;5.43;;;1.23;;
73919;SDS011;62266;53.348;-1.496;2023-03-14T03:37:44;4.82;;;1.30;;
73919;SDS011;62266;53.348;-1.496;2023-03-14T03:40:27;2.83;;;1.10;;
73919;SDS011;62266;53.348;-1.496;2023-03-14T03:43:12;4.43;;;1.48;;
73919;SDS011;62266;53.348;-1.496;2023-03-14T03:45:56;4.07;;;1.25;;
73919;SDS011;62266;53.348;-1.496;2023-03-14T03:48:40;7.90;;;1.33;;
73919;SDS011;62266;53.348;-1.496;2023-03-14T03:51:24;3.03;;;1.13;;
73919;SDS011;62266;53.348;-1.496;2023-03-14T03:54:09;8.43;;;1.10;;
73919;SDS011;62266;53.348;-1.496;2023-03-14T03:56:53;3.80;;;0.95;;
73919;SDS011;62266;53.348;-1.496;2023-03-14T03:59:37;3.40;;;1.23;;
73919;SDS011;62266;53.348;-1.496;2023-03-14T04:02:23;6.75;;;1.63;;
73919;SDS011;62266;53.348;-1.496;2023-03-14T04:05:08;4.00;;;1.10;;
73919;SDS011;62266;53.348;-1.496;2023-03-14T04:07:55;5.70;;;1.17;;
73919;SDS011;62266;53.348;-1.496;2023-03-14T04:10:39;7.60;;;1.25;;
73919;SDS011;62266;53.348;-1.496;2023-03-14T04:13:24;4.65;;;1.17;;
73919;SDS011;62266;53.348;-1.496;2023-03-14T04:16:20;5.88;;;1.30;;
73919;SDS011;62266;53.348;-1.496;2023-03-14T04:19:08;7.93;;;1.83;;
73919;SDS011;62266;53.348;-1.496;2023-03-14T04:21:53;6.07;;;1.30;;
73919;SDS011;62266;53.348;-1.496;2023-03-14T04:24:37;5.75;;;1.35;;
73919;SDS011;62266;53.348;-1.496;2023-03-14T04:27:21;8.50;;;1.45;;
73919;SDS011;62266;53.348;-1.496;2023-03-14T04:30:05;10.52;;;1.70;;
73919;SDS011;62266;53.348;-1.496;2023-03-14T04:32:49;11.05;;;1.83;;
73919;SDS011;62266;53.348;-1.496;2023-03-14T04:35:34;12.03;;;1.90;;
73919;SDS011;62266;53.348;-1.496;2023-03-14T04:38:18;9.38;;;1.42;;
73919;SDS011;62266;53.348;-1.496;2023-03-14T04:41:03;11.25;;;1.48;;
73919;SDS011;62266;53.348;-1.496;2023-03-14T04:43:47;7.30;;;1.23;;
73919;SDS011;62266;53.348;-1.496;2023-03-14T04:46:31;7.82;;;1.67;;
73919;SDS011;62266;53.348;-1.496;2023-03-14T04:49:16;7.67;;;1.30;;
73919;SDS011;62266;53.348;-1.496;2023-03-14T04:52:00;10.05;;;1.45;;
73919;SDS011;62266;53.348;-1.496;2023-03-14T04:54:44;10.27;;;1.92;;
73919;SDS011;62266;53.348;-1.496;2023-03-14T04:57:28;7.32;;;1.27;;
73919;SDS011;62266;53.348;-1.496;2023-03-14T05:00:12;7.15;;;1.40;;
73919;SDS011;62266;53.348;-1.496;2023-03-14T05:02:57;6.20;;;1.20;;
73919;SDS011;62266;53.348;-1.496;2023-03-14T05:05:41;7.20;;;1.08;;
73919;SDS011;62266;53.348;-1.496;2023-03-14T05:08:25;8.73;;;1.38;;
73919;SDS011;62266;53.348;-1.496;2023-03-14T05:11:10;10.30;;;1.73;;
73919;SDS011;62266;53.348;-1.496;2023-03-14T05:13:54;8.70;;;2.08;;
73919;SDS011;62266;53.348;-1.496;2023-03-14T05:16:38;3.83;;;1.20;;
73919;SDS011;62266;53.348;-1.496;2023-03-14T05:19:22;9.30;;;1.30;;
73919;SDS011;62266;53.348;-1.496;2023-03-14T05:22:06;6.05;;;1.85;;
73919;SDS011;62266;53.348;-1.496;2023-03-14T05:24:52;8.43;;;1.50;;
73919;SDS011;62266;53.348;-1.496;2023-03-14T05:27:40;8.82;;;1.73;;
73919;SDS011;62266;53.348;-1.496;2023-03-14T05:30:25;13.73;;;1.47;;
73919;SDS011;62266;53.348;-1.496;2023-03-14T05:33:10;9.02;;;1.40;;
73919;SDS011;62266;53.348;-1.496;2023-03-14T05:35:54;10.52;;;1.85;;
73919;SDS011;62266;53.348;-1.496;2023-03-14T05:38:39;6.32;;;1.67;;
73919;SDS011;62266;53.348;-1.496;2023-03-14T05:41:24;12.13;;;2.47;;
73919;SDS011;62266;53.348;-1.496;2023-03-14T05:44:08;11.37;;;1.63;;
73919;SDS011;62266;53.348;-1.496;2023-03-14T05:46:52;7.38;;;2.42;;
73919;SDS011;62266;53.348;-1.496;2023-03-14T05:49:36;10.85;;;1.90;;
73919;SDS011;62266;53.348;-1.496;2023-03-14T05:52:23;8.43;;;1.70;;
73919;SDS011;62266;53.348;-1.496;2023-03-14T05:55:08;13.85;;;2.47;;
73919;SDS011;62266;53.348;-1.496;2023-03-14T05:57:53;9.67;;;1.70;;
73919;SDS011;62266;53.348;-1.496;2023-03-14T06:00:38;10.07;;;1.55;;
73919;SDS011;62266;53.348;-1.496;2023-03-14T06:03:25;8.15;;;1.85;;
73919;SDS011;62266;53.348;-1.496;2023-03-14T06:06:16;9.25;;;1.45;;
73919;SDS011;62266;53.348;-1.496;2023-03-14T06:09:04;10.10;;;1.55;;
73919;SDS011;62266;53.348;-1.496;2023-03-14T06:11:48;17.70;;;1.63;;
73919;SDS011;62266;53.348;-1.496;2023-03-14T06:14:34;12.75;;;1.95;;
73919;SDS011;62266;53.348;-1.496;2023-03-14T06:17:22;11.40;;;1.60;;
73919;SDS011;62266;53.348;-1.496;2023-03-14T06:20:08;5.10;;;1.30;;
73919;SDS011;62266;53.348;-1.496;2023-03-14T06:22:53;13.07;;;2.83;;
73919;SDS011;62266;53.348;-1.496;2023-03-14T06:25:37;13.33;;;1.60;;
73919;SDS011;62266;53.348;-1.496;2023-03-14T06:28:21;9.65;;;1.30;;
73919;SDS011;62266;53.348;-1.496;2023-03-14T06:31:06;9.23;;;1.75;;
73919;SDS011;62266;53.348;-1.496;2023-03-14T06:33:50;9.55;;;1.70;;
73919;SDS011;62266;53.348;-1.496;2023-03-14T06:36:34;10.75;;;2.10;;
73919;SDS011;62266;53.348;-1.496;2023-03-14T06:39:18;11.07;;;1.50;;
73919;SDS011;62266;53.348;-1.496;2023-03-14T06:42:03;12.95;;;1.77;;
73919;SDS011;62266;53.348;-1.496;2023-03-14T06:44:48;6.80;;;1.52;;
73919;SDS011;62266;53.348;-1.496;2023-03-14T06:47:32;9.48;;;1.33;;
73919;SDS011;62266;53.348;-1.496;2023-03-14T06:50:17;9.15;;;1.25;;
73919;SDS011;62266;53.348;-1.496;2023-03-14T06:53:01;9.67;;;1.60;;
73919;SDS011;62266;53.348;-1.496;2023-03-14T06:55:45;10.48;;;2.13;;
73919;SDS011;62266;53.348;-1.496;2023-03-14T06:58:29;9.27;;;2.03;;
73919;SDS011;62266;53.348;-1.496;2023-03-14T07:01:23;10.88;;;1.65;;
73919;SDS011;62266;53.348;-1.496;2023-03-14T07:04:09;7.80;;;1.85;;
73919;SDS011;62266;53.348;-1.496;2023-03-14T07:06:54;9.97;;;1.60;;
73919;SDS011;62266;53.348;-1.496;2023-03-14T07:09:38;13.13;;;1.50;;
73919;SDS011;62266;53.348;-1.496;2023-03-14T07:12:22;9.73;;;1.70;;
73919;SDS011;62266;53.348;-1.496;2023-03-14T07:15:06;8.85;;;1.40;;
73919;SDS011;62266;53.348;-1.496;2023-03-14T07:17:51;10.93;;;1.67;;
73919;SDS011;62266;53.348;-1.496;2023-03-14T07:20:35;7.63;;;1.27;;
73919;SDS011;62266;53.348;-1.496;2023-03-14T07:23:19;10.15;;;1.35;;
73919;SDS011;62266;53.348;-1.496;2023-03-14T07:26:04;8.07;;;1.20;;
73919;SDS011;62266;53.348;-1.496;2023-03-14T07:28:48;9.52;;;1.40;;
73919;SDS011;62266;53.348;-1.496;2023-03-14T07:31:32;6.75;;;1.33;;
73919;SDS011;62266;53.348;-1.496;2023-03-14T07:34:16;9.63;;;1.10;;
73919;SDS011;62266;53.348;-1.496;2023-03-14T07:37:00;10.30;;;1.55;;
73919;SDS011;62266;53.348;-1.496;2023-03-14T07:39:44;7.25;;;1.30;;
73919;SDS011;62266;53.348;-1.496;2023-03-14T07:42:29;7.82;;;1.15;;
73919;SDS011;62266;53.348;-1.496;2023-03-14T07:45:13;8.15;;;1.60;;
73919;SDS011;62266;53.348;-1.496;2023-03-14T07:47:57;5.17;;;1.27;;
73919;SDS011;62266;53.348;-1.496;2023-03-14T07:53:25;10.68;;;1.42;;
73919;SDS011;62266;53.348;-1.496;2023-03-14T07:56:09;8.93;;;1.17;;
73919;SDS011;62266;53.348;-1.496;2023-03-14T07:58:53;7.18;;;1.20;;
73919;SDS011;62266;53.348;-1.496;2023-03-14T08:01:38;7.83;;;1.20;;
73919;SDS011;62266;53.348;-1.496;2023-03-14T08:04:23;7.40;;;1.42;;
73919;SDS011;62266;53.348;-1.496;2023-03-14T08:07:07;11.82;;;1.70;;
73919;SDS011;62266;53.348;-1.496;2023-03-14T08:09:55;14.90;;;1.30;;
73919;SDS011;62266;53.348;-1.496;2023-03-14T08:12:39;9.57;;;1.73;;
73919;SDS011;62266;53.348;-1.496;2023-03-14T08:15:23;8.80;;;1.10;;
73919;SDS011;62266;53.348;-1.496;2023-03-14T08:18:07;11.85;;;1.27;;
73919;SDS011;62266;53.348;-1.496;2023-03-14T08:20:51;9.52;;;1.13;;
73919;SDS011;62266;53.348;-1.496;2023-03-14T08:23:35;6.03;;;1.25;;
73919;SDS011;62266;53.348;-1.496;2023-03-14T08:26:22;4.78;;;0.90;;
73919;SDS011;62266;53.348;-1.496;2023-03-14T08:29:07;11.00;;;1.40;;
73919;SDS011;62266;53.348;-1.496;2023-03-14T08:31:52;6.18;;;0.73;;
73919;SDS011;62266;53.348;-1.496;2023-03-14T08:34:38;13.73;;;1.55;;
73919;SDS011;62266;53.348;-1.496;2023-03-14T08:37:23;7.82;;;1.20;;
73919;SDS011;62266;53.348;-1.496;2023-03-14T08:40:08;5.70;;;0.90;;
73919;SDS011;62266;53.348;-1.496;2023-03-14T08:42:54;5.83;;;1.00;;
73919;SDS011;62266;53.348;-1.496;2023-03-14T08:45:38;7.03;;;1.23;;
73919;SDS011;62266;53.348;-1.496;2023-03-14T08:48:22;4.38;;;0.93;;
73919;SDS011;62266;53.348;-1.496;2023-03-14T08:51:06;6.25;;;0.80;;
73919;SDS011;62266;53.348;-1.496;2023-03-14T08:53:51;4.10;;;1.27;;
73919;SDS011;62266;53.348;-1.496;2023-03-14T08:56:35;3.33;;;0.80;;
73919;SDS011;62266;53.348;-1.496;2023-03-14T08:59:22;6.45;;;0.98;;
73919;SDS011;62266;53.348;-1.496;2023-03-14T09:02:08;6.80;;;1.15;;
73919;SDS011;62266;53.348;-1.496;2023-03-14T09:04:54;6.18;;;0.95;;
73919;SDS011;62266;53.348;-1.496;2023-03-14T09:07:38;7.07;;;1.55;;
73919;SDS011;62266;53.348;-1.496;2023-03-14T09:10:22;5.73;;;0.80;;
73919;SDS011;62266;53.348;-1.496;2023-03-14T09:13:06;5.35;;;0.68;;
73919;SDS011;62266;53.348;-1.496;2023-03-14T09:15:53;5.65;;;0.88;;
73919;SDS011;62266;53.348;-1.496;2023-03-14T09:18:40;7.18;;;1.00;;
73919;SDS011;62266;53.348;-1.496;2023-03-14T09:21:27;3.53;;;0.82;;
73919;SDS011;62266;53.348;-1.496;2023-03-14T09:24:11;7.50;;;1.43;;
73919;SDS011;62266;53.348;-1.496;2023-03-14T09:26:56;7.78;;;1.38;;
73919;SDS011;62266;53.348;-1.496;2023-03-14T09:29:40;10.23;;;1.77;;
73919;SDS011;62266;53.348;-1.496;2023-03-14T09:32:27;10.57;;;1.83;;
73919;SDS011;62266;53.348;-1.496;2023-03-14T09:35:10;7.70;;;1.55;;
73919;SDS011;62266;53.348;-1.496;2023-03-14T09:37:54;5.43;;;1.30;;
73919;SDS011;62266;53.348;-1.496;2023-03-14T09:40:40;9.68;;;1.92;;
73919;SDS011;62266;53.348;-1.496;2023-03-14T09:43:24;5.63;;;2.13;;
73919;SDS011;62266;53.348;-1.496;2023-03-14T09:46:10;5.55;;;1.98;;
73919;SDS011;62266;53.348;-1.496;2023-03-14T09:48:55;5.05;;;1.30;;
73919;SDS011;62266;53.348;-1.496;2023-03-14T09:51:39;5.50;;;1.13;;
73919;SDS011;62266;53.348;-1.496;2023-03-14T09:57:34;7.18;;;1.88;;
73919;SDS011;62266;53.348;-1.496;2023-03-14T10:00:23;4.97;;;1.38;;
73919;SDS011;62266;53.348;-1.496;2023-03-14T10:05:56;8.53;;;1.43;;
73919;SDS011;62266;53.348;-1.496;2023-03-14T10:08:41;6.68;;;1.65;;
73919;SDS011;62266;53.348;-1.496;2023-03-14T10:11:26;7.68;;;0.95;;
73919;SDS011;62266;53.348;-1.496;2023-03-14T10:14:10;3.38;;;0.77;;
73919;SDS011;62266;53.348;-1.496;2023-03-14T10:17:07;5.20;;;1.25;;
73919;SDS011;62266;53.348;-1.496;2023-03-14T10:19:58;6.67;;;1.03;;
73919;SDS011;62266;53.348;-1.496;2023-03-14T10:22:43;4.85;;;0.95;;
73919;SDS011;62266;53.348;-1.496;2023-03-14T10:25:30;5.93;;;1.27;;
73919;SDS011;62266;53.348;-1.496;2023-03-14T10:28:26;6.85;;;0.82;;
73919;SDS011;62266;53.348;-1.496;2023-03-14T10:31:10;5.88;;;0.60;;
73919;SDS011;62266;53.348;-1.496;2023-03-14T10:34:02;8.10;;;1.97;;
73919;SDS011;62266;53.348;-1.496;2023-03-14T10:36:51;3.15;;;0.50;;
73919;SDS011;62266;53.348;-1.496;2023-03-14T10:39:46;4.95;;;1.10;;
73919;SDS011;62266;53.348;-1.496;2023-03-14T10:42:32;2.78;;;0.60;;
73919;SDS011;62266;53.348;-1.496;2023-03-14T10:51:18;7.80;;;0.90;;
73919;SDS011;62266;53.348;-1.496;2023-03-14T10:54:13;3.83;;;1.00;;
73919;SDS011;62266;53.348;-1.496;2023-03-14T10:56:59;6.97;;;1.27;;
73919;SDS011;62266;53.348;-1.496;2023-03-14T10:59:44;5.07;;;1.27;;
73919;SDS011;62266;53.348;-1.496;2023-03-14T11:11:54;5.60;;;0.82;;
73919;SDS011;62266;53.348;-1.496;2023-03-14T11:14:47;5.53;;;0.65;;
73919;SDS011;62266;53.348;-1.496;2023-03-14T11:18:05;7.80;;;1.10;;
73919;SDS011;62266;53.348;-1.496;2023-03-14T11:27:21;9.77;;;1.40;;
73919;SDS011;62266;53.348;-1.496;2023-03-14T11:30:54;8.68;;;1.35;;
73919;SDS011;62266;53.348;-1.496;2023-03-14T11:33:17;7.13;;;0.90;;
73919;SDS011;62266;53.348;-1.496;2023-03-14T11:36:09;3.15;;;0.85;;
73919;SDS011;62266;53.348;-1.496;2023-03-14T11:38:55;5.32;;;1.00;;
73919;SDS011;62266;53.348;-1.496;2023-03-14T11:41:41;3.90;;;0.88;;
73919;SDS011;62266;53.348;-1.496;2023-03-14T11:44:33;4.40;;;0.93;;
73919;SDS011;62266;53.348;-1.496;2023-03-14T11:50:20;6.13;;;1.10;;
73919;SDS011;62266;53.348;-1.496;2023-03-14T11:53:09;6.88;;;1.33;;
73919;SDS011;62266;53.348;-1.496;2023-03-14T11:55:58;4.25;;;0.90;;
73919;SDS011;62266;53.348;-1.496;2023-03-14T11:58:45;7.13;;;1.88;;
73919;SDS011;62266;53.348;-1.496;2023-03-14T12:01:57;6.43;;;1.40;;
73919;SDS011;62266;53.348;-1.496;2023-03-14T12:04:49;5.57;;;1.20;;
73919;SDS011;62266;53.348;-1.496;2023-03-14T12:07:44;7.00;;;1.60;;
73919;SDS011;62266;53.348;-1.496;2023-03-14T12:10:54;3.83;;;0.85;;
73919;SDS011;62266;53.348;-1.496;2023-03-14T12:13:40;4.07;;;0.80;;
73919;SDS011;62266;53.348;-1.496;2023-03-14T12:16:37;1.83;;;0.47;;
73919;SDS011;62266;53.348;-1.496;2023-03-14T12:22:23;1.23;;;0.35;;
73919;SDS011;62266;53.348;-1.496;2023-03-14T12:30:40;2.97;;;0.70;;
73919;SDS011;62266;53.348;-1.496;2023-03-14T12:33:28;1.48;;;0.22;;
73919;SDS011;62266;53.348;-1.496;2023-03-14T12:36:39;1.27;;;0.40;;
73919;SDS011;62266;53.348;-1.496;2023-03-14T12:45:24;1.20;;;0.23;;
73919;SDS011;62266;53.348;-1.496;2023-03-14T12:48:22;2.60;;;0.38;;
73919;SDS011;62266;53.348;-1.496;2023-03-14T12:51:14;9.30;;;0.70;;
73919;SDS011;62266;53.348;-1.496;2023-03-14T13:03:15;4.15;;;0.30;;
73919;SDS011;62266;53.348;-1.496;2023-03-14T13:06:02;3.05;;;0.60;;
73919;SDS011;62266;53.348;-1.496;2023-03-14T13:08:48;5.97;;;1.23;;
73919;SDS011;62266;53.348;-1.496;2023-03-14T13:11:36;2.00;;;0.80;;
73919;SDS011;62266;53.348;-1.496;2023-03-14T13:14:20;4.53;;;1.40;;
73919;SDS011;62266;53.348;-1.496;2023-03-14T13:17:04;2.85;;;1.13;;
73919;SDS011;62266;53.348;-1.496;2023-03-14T13:19:56;4.50;;;0.95;;
73919;SDS011;62266;53.348;-1.496;2023-03-14T13:22:48;6.50;;;1.48;;
73919;SDS011;62266;53.348;-1.496;2023-03-14T13:25:33;2.90;;;0.95;;
73919;SDS011;62266;53.348;-1.496;2023-03-14T13:28:18;2.50;;;0.40;;
73919;SDS011;62266;53.348;-1.496;2023-03-14T13:31:03;2.10;;;0.43;;
73919;SDS011;62266;53.348;-1.496;2023-03-14T13:33:59;3.08;;;0.70;;
73919;SDS011;62266;53.348;-1.496;2023-03-14T13:36:51;2.60;;;0.43;;
73919;SDS011;62266;53.348;-1.496;2023-03-14T13:39:35;3.53;;;1.30;;
73919;SDS011;62266;53.348;-1.496;2023-03-14T13:42:27;1.23;;;0.50;;
73919;SDS011;62266;53.348;-1.496;2023-03-14T13:45:12;3.58;;;0.60;;
73919;SDS011;62266;53.348;-1.496;2023-03-14T13:47:57;4.53;;;0.88;;
73919;SDS011;62266;53.348;-1.496;2023-03-14T13:50:46;2.67;;;0.60;;
73919;SDS011;62266;53.348;-1.496;2023-03-14T13:53:42;4.25;;;0.68;;
73919;SDS011;62266;53.348;-1.496;2023-03-14T13:56:29;2.47;;;0.60;;
73919;SDS011;62266;53.348;-1.496;2023-03-14T13:59:21;2.63;;;0.60;;
73919;SDS011;62266;53.348;-1.496;2023-03-14T14:02:12;6.57;;;1.38;;
73919;SDS011;62266;53.348;-1.496;2023-03-14T14:04:58;1.08;;;0.50;;
73919;SDS011;62266;53.348;-1.496;2023-03-14T14:07:43;3.08;;;0.82;;
73919;SDS011;62266;53.348;-1.496;2023-03-14T14:10:28;2.93;;;0.77;;
73919;SDS011;62266;53.348;-1.496;2023-03-14T14:13:14;2.35;;;0.40;;
73919;SDS011;62266;53.348;-1.496;2023-03-14T14:16:02;1.80;;;0.50;;
73919;SDS011;62266;53.348;-1.496;2023-03-14T14:18:47;5.57;;;0.65;;
73919;SDS011;62266;53.348;-1.496;2023-03-14T14:21:32;2.70;;;0.75;;
73919;SDS011;62266;53.348;-1.496;2023-03-14T14:24:16;2.53;;;0.83;;
73919;SDS011;62266;53.348;-1.496;2023-03-14T14:27:02;3.30;;;0.95;;
73919;SDS011;62266;53.348;-1.496;2023-03-14T14:29:59;1.85;;;0.80;;
73919;SDS011;62266;53.348;-1.496;2023-03-14T14:32:50;3.35;;;0.63;;
73919;SDS011;62266;53.348;-1.496;2023-03-14T14:35:35;2.38;;;0.52;;
73919;SDS011;62266;53.348;-1.496;2023-03-14T14:38:19;3.40;;;0.50;;
73919;SDS011;62266;53.348;-1.496;2023-03-14T14:41:04;2.03;;;0.40;;
73919;SDS011;62266;53.348;-1.496;2023-03-14T14:43:49;2.65;;;0.50;;
73919;SDS011;62266;53.348;-1.496;2023-03-14T14:46:35;3.35;;;0.43;;
73919;SDS011;62266;53.348;-1.496;2023-03-14T14:49:22;2.70;;;0.70;;
73919;SDS011;62266;53.348;-1.496;2023-03-14T14:52:30;2.67;;;0.27;;
73919;SDS011;62266;53.348;-1.496;2023-03-14T14:55:28;2.70;;;0.40;;
73919;SDS011;62266;53.348;-1.496;2023-03-14T14:58:23;5.15;;;0.70;;
73919;SDS011;62266;53.348;-1.496;2023-03-14T15:04:10;3.42;;;0.55;;
73919;SDS011;62266;53.348;-1.496;2023-03-14T15:06:57;1.50;;;0.20;;
73919;SDS011;62266;53.348;-1.496;2023-03-14T15:09:42;5.13;;;0.60;;
73919;SDS011;62266;53.348;-1.496;2023-03-14T15:12:26;2.00;;;0.38;;
73919;SDS011;62266;53.348;-1.496;2023-03-14T15:15:12;5.60;;;0.82;;
73919;SDS011;62266;53.348;-1.496;2023-03-14T15:17:56;0.80;;;0.40;;
73919;SDS011;62266;53.348;-1.496;2023-03-14T15:20:40;3.70;;;0.73;;
73919;SDS011;62266;53.348;-1.496;2023-03-14T15:23:24;1.88;;;0.50;;
73919;SDS011;62266;53.348;-1.496;2023-03-14T15:26:11;3.53;;;0.40;;
73919;SDS011;62266;53.348;-1.496;2023-03-14T15:28:56;1.77;;;0.40;;
73919;SDS011;62266;53.348;-1.496;2023-03-14T15:31:40;3.40;;;1.02;;
73919;SDS011;62266;53.348;-1.496;2023-03-14T15:34:26;4.93;;;1.03;;
73919;SDS011;62266;53.348;-1.496;2023-03-14T15:37:12;3.03;;;0.68;;
73919;SDS011;62266;53.348;-1.496;2023-03-14T15:39:59;2.75;;;1.00;;
73919;SDS011;62266;53.348;-1.496;2023-03-14T15:42:43;2.78;;;0.88;;
73919;SDS011;62266;53.348;-1.496;2023-03-14T15:45:27;5.82;;;1.40;;
73919;SDS011;62266;53.348;-1.496;2023-03-14T15:48:16;3.70;;;1.10;;
73919;SDS011;62266;53.348;-1.496;2023-03-14T15:51:04;2.10;;;0.70;;
73919;SDS011;62266;53.348;-1.496;2023-03-14T15:53:49;0.93;;;0.50;;
73919;SDS011;62266;53.348;-1.496;2023-03-14T15:56:35;1.02;;;0.50;;
73919;SDS011;62266;53.348;-1.496;2023-03-14T15:59:19;0.85;;;0.47;;
73919;SDS011;62266;53.348;-1.496;2023-03-14T16:02:03;2.23;;;0.60;;
73919;SDS011;62266;53.348;-1.496;2023-03-14T16:04:47;2.47;;;0.32;;
73919;SDS011;62266;53.348;-1.496;2023-03-14T16:07:31;1.77;;;0.50;;
73919;SDS011;62266;53.348;-1.496;2023-03-14T16:10:17;3.35;;;1.73;;
73919;SDS011;62266;53.348;-1.496;2023-03-14T16:13:01;5.10;;;2.72;;
73919;SDS011;62266;53.348;-1.496;2023-03-14T16:15:56;5.27;;;2.33;;
73919;SDS011;62266;53.348;-1.496;2023-03-14T16:18:41;2.88;;;1.70;;
73919;SDS011;62266;53.348;-1.496;2023-03-14T16:21:25;3.20;;;1.40;;
73919;SDS011;62266;53.348;-1.496;2023-03-14T16:24:09;2.70;;;1.58;;
73919;SDS011;62266;53.348;-1.496;2023-03-14T16:26:53;1.95;;;1.13;;
73919;SDS011;62266;53.348;-1.496;2023-03-14T16:29:37;1.50;;;1.03;;
73919;SDS011;62266;53.348;-1.496;2023-03-14T16:32:21;2.13;;;1.00;;
73919;SDS011;62266;53.348;-1.496;2023-03-14T16:35:06;3.45;;;1.40;;
73919;SDS011;62266;53.348;-1.496;2023-03-14T16:37:50;3.28;;;1.40;;
73919;SDS011;62266;53.348;-1.496;2023-03-14T16:40:37;3.92;;;1.73;;
73919;SDS011;62266;53.348;-1.496;2023-03-14T16:43:21;2.37;;;1.23;;
73919;SDS011;62266;53.348;-1.496;2023-03-14T16:46:06;2.17;;;1.40;;
73919;SDS011;62266;53.348;-1.496;2023-03-14T16:48:54;2.58;;;1.60;;
73919;SDS011;62266;53.348;-1.496;2023-03-14T16:51:39;2.83;;;1.00;;
73919;SDS011;62266;53.348;-1.496;2023-03-14T16:54:24;3.83;;;1.23;;
73919;SDS011;62266;53.348;-1.496;2023-03-14T16:57:09;2.80;;;1.50;;
73919;SDS011;62266;53.348;-1.496;2023-03-14T16:59:53;4.88;;;1.60;;
73919;SDS011;62266;53.348;-1.496;2023-03-14T17:02:40;3.10;;;1.58;;
73919;SDS011;62266;53.348;-1.496;2023-03-14T17:05:24;3.03;;;1.35;;
73919;SDS011;62266;53.348;-1.496;2023-03-14T17:08:09;3.88;;;1.38;;
73919;SDS011;62266;53.348;-1.496;2023-03-14T17:10:52;2.77;;;1.13;;
73919;SDS011;62266;53.348;-1.496;2023-03-14T17:13:37;3.25;;;1.40;;
73919;SDS011;62266;53.348;-1.496;2023-03-14T17:16:21;6.78;;;1.88;;
73919;SDS011;62266;53.348;-1.496;2023-03-14T17:19:06;5.07;;;1.80;;
73919;SDS011;62266;53.348;-1.496;2023-03-14T17:21:50;4.57;;;2.25;;
73919;SDS011;62266;53.348;-1.496;2023-03-14T17:24:34;4.97;;;2.03;;